createdAt,value
2023-05-25T00:07:09.764Z,7.70
2023-05-25T00:17:37.398Z,7.80
2023-05-25T00:28:04.976Z,6.10
2023-05-25T00:48:57.498Z,6.60
2023-05-25T00:59:31.137Z,6.80
2023-05-25T01:10:02.799Z,7.20
2023-05-25T01:20:30.168Z,8.80
2023-05-25T01:30:57.806Z,10.50
2023-05-25T01:41:23.326Z,9.00
2023-05-25T01:51:57.707Z,7.50
2023-05-25T02:02:24.573Z,8.10
2023-05-25T02:12:50.869Z,9.80
2023-05-25T02:23:18.721Z,7.60
2023-05-25T02:33:44.490Z,8.40
2023-05-25T02:44:10.219Z,8.00
2023-05-25T02:54:36.439Z,7.50
2023-05-25T03:05:04.656Z,6.90
2023-05-25T03:15:30.700Z,7.10
2023-05-25T03:25:56.079Z,7.50
2023-05-25T03:36:22.402Z,7.10
2023-05-25T03:46:48.062Z,7.00
2023-05-25T03:57:14.305Z,7.10
2023-05-25T04:07:41.321Z,6.60
2023-05-25T04:18:07.923Z,6.50
2023-05-25T04:28:33.545Z,6.90
2023-05-25T04:39:03.048Z,6.80
2023-05-25T04:49:28.848Z,7.80
2023-05-25T04:59:54.902Z,7.30
2023-05-25T05:10:20.724Z,8.80
2023-05-25T05:20:46.807Z,8.80
2023-05-25T05:31:13.247Z,8.20
2023-05-25T05:41:39.071Z,13.30
2023-05-25T05:52:06.891Z,7.90
2023-05-25T06:02:32.707Z,6.60
2023-05-25T06:12:58.688Z,6.60
2023-05-25T06:23:24.971Z,11.10
2023-05-25T06:33:51.979Z,11.90
2023-05-25T06:44:18.895Z,11.80
2023-05-25T06:54:44.779Z,10.70
2023-05-25T07:05:11.344Z,10.40
2023-05-25T07:15:37.190Z,8.30
2023-05-25T07:26:05.576Z,8.10
2023-05-25T07:36:31.708Z,8.60
2023-05-25T07:46:57.283Z,10.70
2023-05-25T07:57:23.374Z,10.70
2023-05-25T08:07:49.225Z,13.30
2023-05-25T08:18:15.185Z,12.20
2023-05-25T08:28:41.422Z,13.30
2023-05-25T08:39:08.419Z,15.20
2023-05-25T08:49:39.469Z,13.90
2023-05-25T09:00:10.934Z,15.40
2023-05-25T09:10:37.910Z,12.90
2023-05-25T09:21:04.328Z,11.50
2023-05-25T09:31:31.336Z,11.70
2023-05-25T09:41:57.701Z,13.00
2023-05-25T09:52:24.178Z,11.90
2023-05-25T10:02:50.250Z,11.50
2023-05-25T10:13:20.034Z,11.70
2023-05-25T10:23:49.286Z,11.60
2023-05-25T10:34:17.453Z,10.00
2023-05-25T10:44:44.113Z,9.20
2023-05-25T10:55:12.728Z,12.10
2023-05-25T11:05:40.931Z,10.50
2023-05-25T11:16:17.975Z,11.00
2023-05-25T11:26:57.845Z,11.00
2023-05-25T11:37:25.656Z,10.20
2023-05-25T11:47:51.493Z,11.60
2023-05-25T11:58:17.771Z,11.30
2023-05-25T12:08:43.372Z,12.70
2023-05-25T12:19:11.361Z,12.00
2023-05-25T12:30:14.792Z,12.70
2023-05-25T12:40:40.807Z,11.30
2023-05-25T12:51:07.220Z,13.30
2023-05-25T13:01:34.252Z,12.80
2023-05-25T13:12:02.645Z,11.40
2023-05-25T13:22:28.646Z,11.40
2023-05-25T13:32:55.504Z,11.70
2023-05-25T13:43:21.292Z,11.50
2023-05-25T13:53:48.678Z,12.00
2023-05-25T14:04:16.581Z,11.10
2023-05-25T14:14:42.239Z,12.80
2023-05-25T14:25:10.200Z,11.90
2023-05-25T14:35:35.935Z,11.30
2023-05-25T14:46:01.982Z,12.60
2023-05-25T14:56:28.263Z,14.40
2023-05-25T15:06:54.110Z,13.50
2023-05-25T15:17:19.651Z,12.40
2023-05-25T15:27:45.214Z,14.00
2023-05-25T15:38:10.970Z,13.50
2023-05-25T15:48:36.610Z,12.60
2023-05-25T15:59:02.404Z,12.20
2023-05-25T16:09:28.144Z,13.60
2023-05-25T16:19:53.929Z,14.80
2023-05-25T16:30:20.223Z,16.50
2023-05-25T16:40:46.392Z,17.30
2023-05-25T16:51:15.316Z,14.90
2023-05-25T17:01:41.226Z,16.00
2023-05-25T17:12:07.675Z,15.30
2023-05-25T17:22:34.244Z,16.10
2023-05-25T17:33:01.914Z,15.10
2023-05-25T17:53:51.294Z,14.10
2023-05-25T18:04:17.227Z,14.70
2023-05-25T18:14:43.071Z,17.40
2023-05-25T18:25:10.595Z,17.00
2023-05-25T18:35:37.032Z,19.90
2023-05-25T18:46:03.009Z,21.00
2023-05-25T18:56:28.773Z,16.00
2023-05-25T19:06:54.613Z,18.30
2023-05-25T19:17:21.401Z,16.10
2023-05-25T19:27:47.140Z,16.50
2023-05-25T19:38:14.434Z,15.60
2023-05-25T19:48:41.724Z,15.90
2023-05-25T19:59:07.464Z,15.50
2023-05-25T20:09:35.171Z,14.30
2023-05-25T20:20:01.756Z,14.40
2023-05-25T20:30:28.041Z,17.80
2023-05-25T20:40:53.933Z,19.30
2023-05-25T20:51:19.945Z,16.60
2023-05-25T21:01:45.727Z,16.50
2023-05-25T21:12:11.758Z,16.30
2023-05-25T21:22:37.880Z,15.30
2023-05-25T21:33:03.904Z,14.00
2023-05-25T21:43:31.044Z,14.40
2023-05-25T21:53:56.429Z,16.20
2023-05-25T22:04:22.196Z,13.50
2023-05-25T22:14:49.289Z,16.00
2023-05-25T22:25:16.029Z,20.00
2023-05-25T22:35:42.267Z,17.90
2023-05-25T22:46:08.981Z,18.80
2023-05-25T22:56:36.278Z,16.80
2023-05-25T23:07:02.051Z,16.30
2023-05-25T23:17:27.674Z,20.50
2023-05-25T23:27:53.581Z,17.40
2023-05-25T23:38:19.557Z,19.90
2023-05-25T23:48:45.523Z,18.90
2023-05-25T23:59:14.456Z,19.10
